createdAt,value
2018-08-17T00:01:32.972Z,18.60
2018-08-17T00:04:00.293Z,18.60
2018-08-17T00:06:31.002Z,18.50
2018-08-17T00:08:57.725Z,18.50
2018-08-17T00:11:25.190Z,18.40
2018-08-17T00:13:51.880Z,18.40
2018-08-17T00:16:18.732Z,18.30
2018-08-17T00:18:46.131Z,18.30
2018-08-17T00:21:12.872Z,18.30
2018-08-17T00:23:39.652Z,18.30
2018-08-17T00:26:07.357Z,18.40
2018-08-17T00:28:34.005Z,18.40
2018-08-17T00:31:00.832Z,18.40
2018-08-17T00:33:27.499Z,18.40
2018-08-17T00:35:54.187Z,18.40
2018-08-17T00:38:20.872Z,18.40
2018-08-17T00:40:48.385Z,18.40
2018-08-17T00:43:15.156Z,18.30
2018-08-17T00:45:42.155Z,18.30
2018-08-17T00:48:09.647Z,18.30
2018-08-17T00:50:37.283Z,18.30
2018-08-17T00:53:04.025Z,18.30
2018-08-17T00:55:30.812Z,18.20
2018-08-17T00:57:57.524Z,18.20
2018-08-17T01:00:24.195Z,18.20
2018-08-17T01:02:51.002Z,18.20
2018-08-17T01:05:17.705Z,18.10
2018-08-17T01:07:45.159Z,18.10
2018-08-17T01:10:11.923Z,18.10
2018-08-17T01:12:38.600Z,18.10
2018-08-17T01:15:05.461Z,18.00
2018-08-17T01:17:32.856Z,18.10
2018-08-17T01:20:00.279Z,18.10
2018-08-17T01:22:26.953Z,18.00
2018-08-17T01:24:54.352Z,18.10
2018-08-17T01:27:21.110Z,18.10
2018-08-17T01:29:47.812Z,18.10
2018-08-17T01:32:14.733Z,18.10
2018-08-17T01:34:43.156Z,18.10
2018-08-17T01:37:09.881Z,18.10
2018-08-17T01:39:36.640Z,18.00
2018-08-17T01:42:03.507Z,18.10
2018-08-17T01:44:30.201Z,18.10
2018-08-17T01:46:57.046Z,18.20
2018-08-17T01:49:24.528Z,18.30
2018-08-17T01:51:51.943Z,18.30
2018-08-17T01:54:19.093Z,18.30
2018-08-17T01:56:45.882Z,18.30
2018-08-17T01:59:12.577Z,18.40
2018-08-17T02:01:39.262Z,18.40
2018-08-17T02:04:06.175Z,18.50
2018-08-17T02:06:33.097Z,18.40
2018-08-17T02:09:00.606Z,18.50
2018-08-17T02:11:27.769Z,18.40
2018-08-17T02:13:55.087Z,18.50
2018-08-17T02:16:21.885Z,18.50
2018-08-17T02:18:49.302Z,18.60
2018-08-17T02:21:16.118Z,18.50
2018-08-17T02:23:42.789Z,18.50
2018-08-17T02:26:10.212Z,18.50
2018-08-17T02:28:36.890Z,18.50
2018-08-17T02:31:03.630Z,18.50
2018-08-17T02:33:30.297Z,18.40
2018-08-17T02:39:11.477Z,18.20
2018-08-17T02:41:38.388Z,18.20
2018-08-17T02:44:05.337Z,18.10
2018-08-17T02:46:32.160Z,18.20
2018-08-17T02:48:58.890Z,18.20
2018-08-17T02:51:25.615Z,18.10
2018-08-17T02:53:52.324Z,18.30
2018-08-17T02:56:19.207Z,18.20
2018-08-17T02:58:46.672Z,18.30
2018-08-17T03:01:13.360Z,18.30
2018-08-17T03:03:40.231Z,18.30
2018-08-17T03:09:00.089Z,18.40
2018-08-17T03:11:26.923Z,18.40
2018-08-17T03:13:53.621Z,18.40
2018-08-17T03:16:20.302Z,18.50
2018-08-17T03:18:47.732Z,18.40
2018-08-17T03:21:14.394Z,18.40
2018-08-17T03:23:42.072Z,18.50
2018-08-17T03:26:08.738Z,18.60
2018-08-17T03:28:35.394Z,18.50
2018-08-17T03:31:02.195Z,18.50
2018-08-17T03:33:28.854Z,18.50
2018-08-17T03:35:55.508Z,18.50
2018-08-17T03:38:22.977Z,18.50
2018-08-17T03:40:49.632Z,18.50
2018-08-17T03:43:17.094Z,18.60
2018-08-17T03:45:44.518Z,18.60
2018-08-17T03:48:11.221Z,18.60
2018-08-17T03:50:37.911Z,18.70
2018-08-17T03:53:04.628Z,18.60
2018-08-17T03:55:31.303Z,18.60
2018-08-17T03:57:58.798Z,18.60
2018-08-17T04:00:25.537Z,18.60
2018-08-17T04:02:52.355Z,18.70
2018-08-17T04:05:19.035Z,18.70
2018-08-17T04:07:45.761Z,18.70
2018-08-17T04:10:12.458Z,18.70
2018-08-17T04:12:39.887Z,18.70
2018-08-17T04:15:06.602Z,18.70
2018-08-17T04:17:33.266Z,18.80
2018-08-17T04:19:59.946Z,18.80
2018-08-17T04:22:27.419Z,18.90
2018-08-17T04:24:54.380Z,18.90
2018-08-17T04:27:21.081Z,19.00
2018-08-17T04:29:48.538Z,19.20
2018-08-17T04:32:15.988Z,19.20
2018-08-17T04:34:42.651Z,19.20
2018-08-17T04:37:09.337Z,19.30
2018-08-17T04:39:35.992Z,19.40
2018-08-17T04:42:02.728Z,19.40
2018-08-17T04:44:29.422Z,19.60
2018-08-17T04:46:56.137Z,19.70
2018-08-17T04:49:23.672Z,19.90
2018-08-17T04:51:50.378Z,19.90
2018-08-17T04:54:17.091Z,19.90
2018-08-17T04:56:43.896Z,19.90
2018-08-17T04:59:10.572Z,19.80
2018-08-17T05:01:37.364Z,19.80
2018-08-17T05:04:04.079Z,19.90
2018-08-17T05:06:30.791Z,20.60
2018-08-17T05:08:58.244Z,22.10
2018-08-17T05:11:24.962Z,22.10
2018-08-17T05:13:52.406Z,23.10
2018-08-17T05:16:19.052Z,23.10
2018-08-17T05:18:45.868Z,23.70
2018-08-17T05:21:12.537Z,25.30
2018-08-17T05:23:39.203Z,25.70
2018-08-17T05:26:05.992Z,26.40
2018-08-17T05:28:32.657Z,27.00
2018-08-17T05:31:00.125Z,26.70
2018-08-17T05:33:26.840Z,26.70
2018-08-17T05:35:53.554Z,27.40
2018-08-17T05:38:20.245Z,27.50
2018-08-17T05:40:47.718Z,28.20
2018-08-17T05:43:14.392Z,28.20
2018-08-17T05:45:41.110Z,28.50
2018-08-17T05:48:07.863Z,28.50
2018-08-17T05:50:34.589Z,29.40
2018-08-17T05:53:01.250Z,28.70
2018-08-17T05:55:28.165Z,28.50
2018-08-17T05:57:54.800Z,27.80
2018-08-17T06:00:21.495Z,27.80
2018-08-17T06:02:48.443Z,27.60
2018-08-17T06:05:15.908Z,26.80
2018-08-17T06:07:42.563Z,26.70
2018-08-17T06:10:10.179Z,26.20
2018-08-17T06:12:36.868Z,26.20
2018-08-17T06:15:03.564Z,26.20
2018-08-17T06:17:30.357Z,26.80
2018-08-17T06:19:57.023Z,27.70
2018-08-17T06:22:23.695Z,29.70
2018-08-17T06:24:50.472Z,30.00
2018-08-17T06:27:17.193Z,29.80
2018-08-17T06:29:44.663Z,29.00
2018-08-17T06:32:12.153Z,30.20
2018-08-17T06:34:38.861Z,30.20
2018-08-17T06:37:06.397Z,30.00
2018-08-17T06:39:33.101Z,30.00
2018-08-17T06:41:59.799Z,30.30
2018-08-17T06:44:27.245Z,31.70
2018-08-17T06:46:54.689Z,32.00
2018-08-17T06:49:21.415Z,32.00
2018-08-17T06:51:48.135Z,32.30
2018-08-17T06:54:14.865Z,32.10
2018-08-17T06:56:41.685Z,31.90
2018-08-17T06:59:08.346Z,31.30
2018-08-17T07:01:35.811Z,32.90
2018-08-17T07:04:03.529Z,33.50
2018-08-17T07:06:30.917Z,32.80
2018-08-17T07:08:57.675Z,32.80
2018-08-17T07:11:25.115Z,32.10
2018-08-17T07:13:51.751Z,32.00
2018-08-17T07:16:18.449Z,32.50
2018-08-17T07:18:45.743Z,32.90
2018-08-17T07:21:12.493Z,33.40
2018-08-17T07:23:39.205Z,33.60
2018-08-17T07:26:06.783Z,32.10
2018-08-17T07:28:33.483Z,32.00
2018-08-17T07:31:00.984Z,32.60
2018-08-17T07:33:27.737Z,32.60
2018-08-17T07:35:54.474Z,32.00
2018-08-17T07:38:21.907Z,31.90
2018-08-17T07:40:48.726Z,31.90
2018-08-17T07:43:16.225Z,32.50
2018-08-17T07:45:43.158Z,32.40
2018-08-17T07:48:10.009Z,33.70
2018-08-17T07:50:36.672Z,33.70
2018-08-17T07:53:03.455Z,33.70
2018-08-17T07:55:31.570Z,33.40
2018-08-17T07:57:59.239Z,34.10
2018-08-17T08:00:25.977Z,34.00
2018-08-17T08:02:52.654Z,33.90
2018-08-17T08:05:20.285Z,33.50
2018-08-17T08:07:46.943Z,33.50
2018-08-17T08:10:13.725Z,34.20
2018-08-17T08:12:40.575Z,34.50
2018-08-17T08:15:07.444Z,34.50
2018-08-17T08:17:34.419Z,34.30
2018-08-17T08:20:01.299Z,33.80
2018-08-17T08:22:28.050Z,33.40
2018-08-17T08:24:54.752Z,33.00
2018-08-17T08:27:22.470Z,34.00
2018-08-17T08:29:49.243Z,34.00
2018-08-17T08:32:16.193Z,33.90
2018-08-17T08:34:42.919Z,34.70
2018-08-17T08:37:24.894Z,34.70
2018-08-17T08:39:52.735Z,34.10
2018-08-17T08:42:19.815Z,34.10
2018-08-17T08:44:47.015Z,34.70
2018-08-17T08:47:14.149Z,33.90
2018-08-17T08:49:41.375Z,33.50
2018-08-17T08:52:08.365Z,33.40
2018-08-17T08:54:35.459Z,32.80
2018-08-17T08:57:17.877Z,32.80
2018-08-17T08:59:49.487Z,33.20
2018-08-17T09:02:17.237Z,33.40
2018-08-17T09:04:44.367Z,33.40
2018-08-17T09:07:11.707Z,33.20
2018-08-17T09:09:38.734Z,33.40
2018-08-17T09:12:05.786Z,32.60
2018-08-17T09:14:33.532Z,31.30
2018-08-17T09:17:00.616Z,31.30
2018-08-17T09:19:28.489Z,31.50
2018-08-17T09:21:55.568Z,31.40
2018-08-17T09:24:22.655Z,31.90
2018-08-17T09:26:49.847Z,31.30
2018-08-17T09:29:17.689Z,30.70
2018-08-17T09:31:44.827Z,30.70
2018-08-17T09:34:11.555Z,30.60
2018-08-17T09:36:38.250Z,30.50
2018-08-17T09:39:05.157Z,30.10
2018-08-17T09:41:31.877Z,30.10
2018-08-17T09:43:58.570Z,29.70
2018-08-17T09:46:25.285Z,29.70
2018-08-17T09:48:52.694Z,29.50
2018-08-17T09:51:20.167Z,29.70
2018-08-17T09:53:46.887Z,29.80
2018-08-17T09:56:14.356Z,30.00
2018-08-17T09:58:41.491Z,30.00
2018-08-17T10:01:08.433Z,29.80
2018-08-17T10:03:35.943Z,29.80
2018-08-17T10:06:03.204Z,29.80
2018-08-17T10:08:30.745Z,28.70
2018-08-17T10:10:57.521Z,28.70
2018-08-17T10:13:24.276Z,28.70
2018-08-17T10:15:51.784Z,29.00
2018-08-17T10:18:18.692Z,29.00
2018-08-17T10:20:45.452Z,29.20
2018-08-17T10:23:12.134Z,29.00
2018-08-17T10:25:39.205Z,29.10
2018-08-17T10:28:05.942Z,28.80
2018-08-17T10:30:32.640Z,28.60
2018-08-17T10:32:59.367Z,28.70
2018-08-17T10:35:26.177Z,28.40
2018-08-17T10:37:53.632Z,28.20
2018-08-17T10:40:21.055Z,28.30
2018-08-17T10:42:47.912Z,28.30
2018-08-17T10:45:14.664Z,28.30
2018-08-17T10:47:41.305Z,28.70
2018-08-17T10:50:08.087Z,28.90
2018-08-17T10:52:34.771Z,29.00
2018-08-17T10:55:16.335Z,29.10
2018-08-17T10:57:43.868Z,28.90
2018-08-17T11:00:10.693Z,29.00
2018-08-17T11:02:38.134Z,28.50
2018-08-17T11:05:04.900Z,28.50
2018-08-17T11:07:32.338Z,28.90
2018-08-17T11:09:59.548Z,28.90
2018-08-17T11:12:26.275Z,28.80
2018-08-17T11:14:52.977Z,28.60
2018-08-17T11:17:20.772Z,28.00
2018-08-17T11:19:47.513Z,28.10
2018-08-17T11:22:14.458Z,28.10
2018-08-17T11:24:41.708Z,28.10
2018-08-17T11:27:09.259Z,28.00
2018-08-17T11:29:35.991Z,28.00
2018-08-17T11:32:02.749Z,28.10
2018-08-17T11:34:29.552Z,28.00
2018-08-17T11:36:56.434Z,27.70
2018-08-17T11:39:23.177Z,27.50
2018-08-17T11:41:50.328Z,27.50
2018-08-17T11:44:17.144Z,27.30
2018-08-17T11:46:44.625Z,26.80
2018-08-17T11:49:11.358Z,26.80
2018-08-17T11:51:38.047Z,26.80
2018-08-17T11:54:04.829Z,26.70
2018-08-17T11:56:31.608Z,26.70
2018-08-17T11:58:58.306Z,26.70
2018-08-17T12:01:25.807Z,26.70
2018-08-17T12:03:52.735Z,27.00
2018-08-17T12:06:19.674Z,27.10
2018-08-17T12:08:46.535Z,27.30
2018-08-17T12:11:14.180Z,27.40
2018-08-17T12:13:41.024Z,27.40
2018-08-17T12:16:08.177Z,27.60
2018-08-17T12:18:35.175Z,27.70
2018-08-17T12:21:02.781Z,27.30
2018-08-17T12:23:29.612Z,27.30
2018-08-17T12:25:56.365Z,27.30
2018-08-17T12:28:23.047Z,27.40
2018-08-17T12:30:50.663Z,27.00
2018-08-17T12:33:17.505Z,27.00
2018-08-17T12:35:44.415Z,27.10
2018-08-17T12:38:11.817Z,26.80
2018-08-17T12:40:38.646Z,26.80
2018-08-17T12:43:05.389Z,26.90
2018-08-17T12:45:32.126Z,26.80
2018-08-17T12:47:58.869Z,26.80
2018-08-17T12:50:25.596Z,26.70
2018-08-17T12:52:52.353Z,26.70
2018-08-17T12:55:19.088Z,26.90
2018-08-17T12:57:45.757Z,27.10
2018-08-17T13:00:12.469Z,27.40
2018-08-17T13:02:40.029Z,27.00
2018-08-17T13:05:06.872Z,27.00
2018-08-17T13:07:33.613Z,27.30
2018-08-17T13:10:00.433Z,27.20
2018-08-17T13:12:27.196Z,27.10
2018-08-17T13:14:53.944Z,26.90
2018-08-17T13:17:20.809Z,26.70
2018-08-17T13:19:47.619Z,26.50
2018-08-17T13:22:14.770Z,26.30
2018-08-17T13:24:42.417Z,26.10
2018-08-17T13:27:09.176Z,26.00
2018-08-17T13:29:35.841Z,26.10
2018-08-17T13:32:02.653Z,26.00
2018-08-17T13:34:29.706Z,25.90
2018-08-17T13:36:56.640Z,26.00
2018-08-17T13:39:23.331Z,25.90
2018-08-17T13:41:50.126Z,25.80
2018-08-17T13:44:16.868Z,25.80
2018-08-17T13:46:43.916Z,25.60
2018-08-17T13:49:10.657Z,25.30
2018-08-17T13:51:37.362Z,25.20
2018-08-17T13:54:04.957Z,24.70
2018-08-17T13:56:31.800Z,24.70
2018-08-17T13:58:58.570Z,24.70
2018-08-17T14:01:25.953Z,24.50
2018-08-17T14:03:52.635Z,24.50
2018-08-17T14:06:19.564Z,24.50
2018-08-17T14:08:46.427Z,24.70
2018-08-17T14:11:13.104Z,24.60
2018-08-17T14:13:40.938Z,24.60
2018-08-17T14:16:07.951Z,24.50
2018-08-17T14:18:34.916Z,24.50
2018-08-17T14:21:01.610Z,24.40
2018-08-17T14:23:29.337Z,24.40
2018-08-17T14:25:56.578Z,24.30
2018-08-17T14:28:23.345Z,24.30
2018-08-17T14:30:50.097Z,24.00
2018-08-17T14:33:17.819Z,23.60
2018-08-17T14:35:45.562Z,23.30
2018-08-17T14:38:12.251Z,23.00
2018-08-17T14:40:38.926Z,23.00
2018-08-17T14:43:06.982Z,22.60
2018-08-17T14:45:33.711Z,22.60
2018-08-17T14:48:00.717Z,22.40
2018-08-17T14:50:27.411Z,22.10
2018-08-17T14:52:54.102Z,21.80
2018-08-17T14:55:21.042Z,21.60
2018-08-17T14:57:47.884Z,21.50
2018-08-17T15:00:14.832Z,21.40
2018-08-17T15:02:42.389Z,21.40
2018-08-17T15:05:09.117Z,21.20
2018-08-17T15:07:36.087Z,21.20
2018-08-17T15:10:03.226Z,21.10
2018-08-17T15:12:29.974Z,20.90
2018-08-17T15:14:56.810Z,20.70
2018-08-17T15:17:23.546Z,20.60
2018-08-17T15:19:50.996Z,20.40
2018-08-17T15:22:18.461Z,20.30
2018-08-17T15:24:46.332Z,20.40
2018-08-17T15:27:13.276Z,20.40
2018-08-17T15:29:43.290Z,20.50
2018-08-17T15:32:10.236Z,20.50
2018-08-17T15:34:38.519Z,20.40
2018-08-17T15:37:05.770Z,20.30
2018-08-17T15:39:33.422Z,20.50
2018-08-17T15:42:00.314Z,20.50
2018-08-17T15:44:27.351Z,20.50
2018-08-17T15:46:54.507Z,20.40
2018-08-17T15:49:21.471Z,20.50
2018-08-17T15:51:49.155Z,20.30
2018-08-17T15:54:15.880Z,20.30
2018-08-17T16:34:23.478Z,18.80
2018-08-17T16:36:50.266Z,18.80
2018-08-17T16:39:17.010Z,18.80
2018-08-17T16:41:43.751Z,18.60
2018-08-17T16:44:10.432Z,18.60
2018-08-17T16:46:37.864Z,18.70
2018-08-17T16:49:04.601Z,18.70
2018-08-17T16:51:31.300Z,18.70
2018-08-17T16:53:58.721Z,18.80
2018-08-17T16:56:25.394Z,18.70
2018-08-17T16:58:52.846Z,18.80
2018-08-17T17:01:19.538Z,18.80
2018-08-17T17:03:46.180Z,18.80
2018-08-17T17:06:12.852Z,18.80
2018-08-17T17:08:39.485Z,18.80
2018-08-17T17:11:06.162Z,18.60
2018-08-17T17:13:33.706Z,18.40
2018-08-17T17:16:01.119Z,18.30
2018-08-17T17:18:27.759Z,18.30
2018-08-17T17:20:54.565Z,18.10
2018-08-17T17:23:21.193Z,18.00
2018-08-17T17:25:48.597Z,18.00
2018-08-17T17:28:15.408Z,18.00
2018-08-17T17:30:42.135Z,18.10
2018-08-17T17:33:09.607Z,18.00
2018-08-17T17:35:36.397Z,18.00
2018-08-17T17:38:03.123Z,17.90
2018-08-17T17:40:29.805Z,17.90
2018-08-17T17:42:57.224Z,18.00
2018-08-17T17:45:23.888Z,17.90
2018-08-17T17:47:50.607Z,17.90
2018-08-17T17:50:17.228Z,17.90
2018-08-17T17:52:43.925Z,17.90
2018-08-17T17:55:11.377Z,18.00
2018-08-17T17:57:38.031Z,18.00
2018-08-17T18:00:04.718Z,18.00
2018-08-17T18:02:31.495Z,18.10
2018-08-17T18:04:58.878Z,18.10
2018-08-17T18:07:25.636Z,18.10
2018-08-17T18:09:52.416Z,18.00
2018-08-17T18:12:19.084Z,18.00
2018-08-17T18:14:45.745Z,18.00
2018-08-17T18:17:12.516Z,17.90
2018-08-17T18:19:39.994Z,17.90
2018-08-17T18:22:07.449Z,17.90
2018-08-17T18:24:35.285Z,17.90
2018-08-17T18:27:02.651Z,17.90
2018-08-17T18:29:30.691Z,17.80
2018-08-17T18:31:57.364Z,17.80
2018-08-17T18:34:24.047Z,17.80
2018-08-17T18:36:51.594Z,17.90
2018-08-17T18:39:18.336Z,17.90
2018-08-17T18:41:45.809Z,17.80
2018-08-17T18:44:14.623Z,17.80
2018-08-17T18:46:43.602Z,17.80
2018-08-17T18:49:17.516Z,17.80
2018-08-17T18:51:44.220Z,17.80
2018-08-17T18:54:11.659Z,17.70
2018-08-17T18:56:38.347Z,17.70
2018-08-17T18:59:05.073Z,17.70
2018-08-17T19:01:31.826Z,17.60
2018-08-17T19:03:58.901Z,17.70
2018-08-17T19:06:26.134Z,17.60
2018-08-17T19:08:53.560Z,17.60
2018-08-17T19:11:20.353Z,17.60
2018-08-17T19:13:46.994Z,17.60
2018-08-17T19:16:13.761Z,17.60
2018-08-17T19:18:41.257Z,17.60
2018-08-17T19:21:08.769Z,17.70
2018-08-17T19:23:35.430Z,17.70
2018-08-17T19:26:02.916Z,17.70
2018-08-17T19:28:29.700Z,17.70
2018-08-17T19:30:56.981Z,17.70
2018-08-17T19:33:25.592Z,17.60
2018-08-17T19:35:53.281Z,17.50
2018-08-17T19:38:20.717Z,17.60
2018-08-17T19:40:48.478Z,17.50
2018-08-17T19:43:16.372Z,17.50
2018-08-17T19:45:43.500Z,17.40
2018-08-17T19:48:11.333Z,17.40
2018-08-17T19:50:38.687Z,17.40
2018-08-17T19:53:05.646Z,17.40
2018-08-17T19:55:32.719Z,17.30
2018-08-17T19:58:00.710Z,17.20
2018-08-17T20:00:27.671Z,17.20
2018-08-17T20:02:55.353Z,17.00
2018-08-17T20:05:22.142Z,17.00
2018-08-17T20:07:48.954Z,16.90
2018-08-17T20:10:15.875Z,16.80
2018-08-17T20:12:42.689Z,16.70
2018-08-17T20:15:10.957Z,16.60
2018-08-17T20:17:38.500Z,16.60
2018-08-17T20:20:05.492Z,16.60
2018-08-17T20:22:32.610Z,16.50
2018-08-17T20:24:59.940Z,16.50
2018-08-17T20:27:26.890Z,16.40
2018-08-17T20:29:54.501Z,16.40
2018-08-17T20:32:21.542Z,16.20
2018-08-17T20:34:49.415Z,16.10
2018-08-17T20:37:16.743Z,16.10
2018-08-17T20:39:44.178Z,16.00
2018-08-17T20:42:11.366Z,16.00
2018-08-17T20:44:39.161Z,16.00
2018-08-17T20:47:05.998Z,16.00
2018-08-17T20:49:33.798Z,15.90
2018-08-17T20:52:00.680Z,15.90
2018-08-17T20:54:27.653Z,15.90
2018-08-17T20:56:54.511Z,15.80
2018-08-17T20:59:21.472Z,15.80
2018-08-17T21:01:48.402Z,15.70
2018-08-17T21:04:15.992Z,15.50
2018-08-17T21:06:42.718Z,15.50
2018-08-17T21:09:09.459Z,15.50
2018-08-17T21:11:36.212Z,15.40
2018-08-17T21:14:04.382Z,15.30
2018-08-17T21:16:31.364Z,15.30
2018-08-17T21:18:58.028Z,15.20
2018-08-17T21:21:25.729Z,15.10
2018-08-17T21:23:52.450Z,15.00
2018-08-17T21:26:19.206Z,15.10
2018-08-17T21:28:46.076Z,14.90
2018-08-17T21:31:12.887Z,14.90
2018-08-17T21:33:39.626Z,14.80
2018-08-17T21:36:06.470Z,14.80
2018-08-17T21:38:33.213Z,14.70
2018-08-17T21:41:00.052Z,14.70
2018-08-17T21:43:26.793Z,14.60
2018-08-17T21:45:53.728Z,14.60
2018-08-17T21:48:20.416Z,14.50
2018-08-17T21:50:47.087Z,14.50
2018-08-17T21:53:14.729Z,14.40
2018-08-17T21:55:41.424Z,14.40
2018-08-17T21:58:08.156Z,14.40
2018-08-17T22:00:34.873Z,14.40
2018-08-17T22:03:02.459Z,14.30
2018-08-17T22:05:29.300Z,14.30
2018-08-17T22:07:56.143Z,14.30
2018-08-17T22:10:22.937Z,14.20
2018-08-17T22:12:49.633Z,14.10
2018-08-17T22:15:16.383Z,14.10
2018-08-17T22:17:43.155Z,14.00
2018-08-17T22:20:09.830Z,14.00
2018-08-17T22:22:37.235Z,13.90
2018-08-17T22:25:04.145Z,13.90
2018-08-17T22:27:30.812Z,13.80
2018-08-17T22:29:57.667Z,13.80
2018-08-17T22:32:24.336Z,13.70
2018-08-17T22:34:51.926Z,13.60
2018-08-17T22:37:18.641Z,13.60
2018-08-17T22:39:46.125Z,13.50
2018-08-17T22:42:12.976Z,13.60
2018-08-17T22:44:39.680Z,13.50
2018-08-17T22:47:07.121Z,13.40
2018-08-17T22:49:33.902Z,13.30
2018-08-17T22:52:00.619Z,13.30
2018-08-17T22:54:28.028Z,13.20
2018-08-17T22:56:54.736Z,13.10
2018-08-17T22:59:21.436Z,13.10
2018-08-17T23:01:48.119Z,13.10
2018-08-17T23:04:14.858Z,13.00
2018-08-17T23:06:41.653Z,12.90
2018-08-17T23:09:08.422Z,12.90
2018-08-17T23:11:35.284Z,13.00
2018-08-17T23:14:02.023Z,12.90
2018-08-17T23:16:28.746Z,12.90
2018-08-17T23:18:56.224Z,12.80
2018-08-17T23:21:22.963Z,12.90
2018-08-17T23:23:49.931Z,12.70
2018-08-17T23:26:16.576Z,12.70
2018-08-17T23:28:43.285Z,12.60
2018-08-17T23:31:10.025Z,12.60
2018-08-17T23:33:36.970Z,12.60
2018-08-17T23:36:03.639Z,12.50
2018-08-17T23:38:30.450Z,12.50
2018-08-17T23:40:57.165Z,12.40
2018-08-17T23:43:24.854Z,12.40
2018-08-17T23:45:52.107Z,12.40
2018-08-17T23:48:19.565Z,12.40
2018-08-17T23:50:47.084Z,12.40
2018-08-17T23:53:14.125Z,12.30
2018-08-17T23:55:40.908Z,12.30
2018-08-17T23:58:08.342Z,12.20
